createdAt,value
2023-01-23T00:01:06.548Z,23.27
2023-01-23T00:03:34.139Z,23.25
2023-01-23T00:06:00.862Z,23.23
2023-01-23T00:08:27.200Z,23.23
2023-01-23T00:10:53.534Z,23.19
2023-01-23T00:13:20.827Z,23.13
2023-01-23T00:15:47.299Z,23.14
2023-01-23T00:18:13.665Z,23.12
2023-01-23T00:20:40.283Z,23.06
2023-01-23T00:23:06.789Z,23.06
2023-01-23T00:25:33.442Z,23.05
2023-01-23T00:28:00.089Z,23.02
2023-01-23T00:30:26.461Z,22.99
2023-01-23T00:32:52.787Z,22.97
2023-01-23T00:35:19.119Z,22.94
2023-01-23T00:37:45.512Z,22.92
2023-01-23T00:40:11.989Z,22.92
2023-01-23T00:42:38.373Z,22.88
2023-01-23T00:45:04.948Z,22.87
2023-01-23T00:47:31.496Z,22.85
2023-01-23T00:49:59.070Z,22.80
2023-01-23T00:52:25.895Z,22.79
2023-01-23T00:54:52.207Z,22.78
2023-01-23T00:57:18.533Z,22.73
2023-01-23T00:59:44.880Z,22.71
2023-01-23T01:02:11.196Z,22.67
2023-01-23T01:04:37.525Z,22.67
2023-01-23T01:07:03.859Z,22.63
2023-01-23T01:09:30.186Z,22.63
2023-01-23T01:11:56.579Z,22.59
2023-01-23T01:14:22.910Z,22.58
2023-01-23T01:16:49.248Z,22.54
2023-01-23T01:19:15.914Z,22.54
2023-01-23T01:21:42.332Z,22.53
2023-01-23T01:24:08.842Z,22.50
2023-01-23T01:26:35.270Z,22.47
2023-01-23T01:29:01.630Z,22.47
2023-01-23T01:31:28.070Z,22.44
2023-01-23T01:33:54.450Z,22.38
2023-01-23T01:36:21.576Z,22.36
2023-01-23T01:38:47.895Z,22.36
2023-01-23T01:41:14.453Z,22.33
2023-01-23T01:43:40.798Z,22.27
2023-01-23T01:46:07.084Z,22.27
2023-01-23T01:48:35.023Z,22.27
2023-01-23T01:51:01.373Z,22.27
2023-01-23T01:53:27.702Z,22.26
2023-01-23T01:55:54.032Z,22.26
2023-01-23T01:58:20.372Z,22.28
2023-01-23T02:00:46.709Z,22.28
2023-01-23T02:03:13.049Z,22.26
2023-01-23T02:05:40.066Z,22.23
2023-01-23T02:08:11.010Z,22.21
2023-01-23T02:10:37.430Z,22.20
2023-01-23T02:13:14.731Z,22.18
2023-01-23T02:15:41.048Z,22.15
2023-01-23T02:18:07.358Z,22.14
2023-01-23T02:20:33.671Z,22.11
2023-01-23T02:23:01.250Z,22.10
2023-01-23T02:25:27.524Z,22.05
2023-01-23T02:27:53.891Z,22.04
2023-01-23T02:30:21.408Z,22.01
2023-01-23T02:32:47.920Z,21.98
2023-01-23T02:35:22.470Z,21.95
2023-01-23T02:37:48.804Z,21.91
2023-01-23T02:40:15.549Z,21.87
2023-01-23T02:42:42.867Z,21.77
2023-01-23T02:45:10.197Z,21.74
2023-01-23T02:47:36.705Z,21.71
2023-01-23T02:50:03.034Z,21.68
2023-01-23T02:55:51.271Z,21.63
2023-01-23T02:58:36.038Z,21.62
2023-01-23T03:01:02.715Z,21.65
2023-01-23T03:03:30.514Z,21.63
2023-01-23T03:05:57.809Z,21.65
2023-01-23T03:08:24.091Z,21.62
2023-01-23T03:10:50.571Z,21.61
2023-01-23T03:13:16.906Z,21.62
2023-01-23T03:15:43.232Z,21.63
2023-01-23T03:18:09.517Z,21.60
2023-01-23T03:20:39.271Z,21.57
2023-01-23T03:23:05.579Z,21.56
2023-01-23T03:25:32.126Z,21.50
2023-01-23T03:27:58.421Z,21.49
2023-01-23T03:30:25.522Z,21.46
2023-01-23T03:32:51.817Z,21.42
2023-01-23T03:35:19.654Z,21.40
2023-01-23T03:37:46.437Z,21.40
2023-01-23T03:40:34.802Z,21.38
2023-01-23T03:43:01.079Z,21.34
2023-01-23T03:45:27.404Z,21.32
2023-01-23T03:47:53.705Z,21.29
2023-01-23T03:50:20.362Z,21.26
2023-01-23T03:52:46.848Z,21.25
2023-01-23T03:55:13.160Z,21.24
2023-01-23T03:57:39.464Z,21.28
2023-01-23T04:00:06.277Z,21.28
2023-01-23T04:02:32.619Z,21.27
2023-01-23T04:04:58.914Z,21.26
2023-01-23T04:07:25.193Z,21.25
2023-01-23T04:09:51.476Z,21.24
2023-01-23T04:12:17.751Z,21.22
2023-01-23T04:14:44.054Z,21.21
2023-01-23T04:17:10.473Z,21.20
2023-01-23T04:19:36.774Z,21.18
2023-01-23T04:22:03.116Z,21.16
2023-01-23T04:24:29.443Z,21.13
2023-01-23T04:26:55.812Z,21.13
2023-01-23T04:29:22.388Z,21.13
2023-01-23T04:31:49.071Z,21.11
2023-01-23T04:34:15.684Z,21.12
2023-01-23T04:36:42.061Z,21.10
2023-01-23T04:39:08.458Z,21.07
2023-01-23T04:41:34.842Z,21.07
2023-01-23T04:44:19.952Z,21.06
2023-01-23T04:46:46.885Z,21.01
2023-01-23T04:49:13.218Z,21.00
2023-01-23T04:51:39.534Z,20.98
2023-01-23T04:54:05.851Z,20.97
2023-01-23T04:56:32.179Z,20.95
2023-01-23T04:58:58.492Z,20.93
2023-01-23T05:01:24.823Z,20.92
2023-01-23T05:03:51.535Z,20.90
2023-01-23T05:06:17.854Z,20.90
2023-01-23T05:08:44.172Z,20.91
2023-01-23T05:11:10.504Z,20.91
2023-01-23T05:13:36.822Z,20.95
2023-01-23T05:16:03.183Z,20.94
2023-01-23T05:18:29.551Z,20.92
2023-01-23T05:20:55.876Z,20.91
2023-01-23T05:23:22.191Z,20.90
2023-01-23T05:25:48.772Z,20.87
2023-01-23T05:28:15.082Z,20.86
2023-01-23T05:30:41.468Z,20.84
2023-01-23T05:33:07.839Z,20.81
2023-01-23T05:35:34.162Z,20.79
2023-01-23T05:38:00.478Z,20.78
2023-01-23T05:40:26.810Z,20.78
2023-01-23T05:42:53.377Z,20.78
2023-01-23T05:45:19.702Z,20.77
2023-01-23T05:47:46.040Z,20.77
2023-01-23T05:50:14.554Z,20.76
2023-01-23T05:52:40.857Z,20.74
2023-01-23T05:55:07.419Z,20.74
2023-01-23T05:57:34.097Z,20.70
2023-01-23T06:00:00.438Z,20.64
2023-01-23T06:02:26.774Z,20.59
2023-01-23T06:04:55.622Z,20.61
2023-01-23T06:07:22.127Z,20.63
2023-01-23T06:09:48.455Z,20.63
2023-01-23T06:12:14.758Z,20.64
2023-01-23T06:14:41.095Z,20.66
2023-01-23T06:17:07.515Z,20.63
2023-01-23T06:19:33.835Z,20.63
2023-01-23T06:22:00.187Z,20.65
2023-01-23T06:24:26.509Z,20.69
2023-01-23T06:26:52.850Z,20.70
2023-01-23T06:29:19.159Z,20.69
2023-01-23T06:31:46.871Z,20.69
2023-01-23T06:34:13.646Z,20.67
2023-01-23T06:36:40.277Z,20.66
2023-01-23T06:39:06.860Z,20.65
2023-01-23T06:41:33.205Z,20.63
2023-01-23T06:43:59.520Z,20.62
2023-01-23T06:46:25.907Z,20.62
2023-01-23T06:48:52.351Z,20.61
2023-01-23T06:51:18.735Z,20.61
2023-01-23T06:53:45.067Z,20.59
2023-01-23T06:56:11.395Z,20.58
2023-01-23T06:58:40.606Z,20.58
2023-01-23T07:01:10.512Z,20.58
2023-01-23T07:03:36.840Z,20.57
2023-01-23T07:06:06.577Z,20.57
2023-01-23T07:08:33.755Z,20.55
2023-01-23T07:11:00.449Z,20.54
2023-01-23T07:13:26.765Z,20.55
2023-01-23T07:15:53.116Z,20.55
2023-01-23T07:18:19.445Z,20.54
2023-01-23T07:20:45.878Z,20.54
2023-01-23T07:23:12.200Z,20.51
2023-01-23T07:25:38.837Z,20.50
2023-01-23T07:28:05.353Z,20.49
2023-01-23T07:30:32.087Z,20.47
2023-01-23T07:32:58.729Z,20.46
2023-01-23T07:35:25.395Z,20.46
2023-01-23T07:37:51.723Z,20.44
2023-01-23T07:40:18.139Z,20.42
2023-01-23T07:42:44.849Z,20.43
2023-01-23T07:45:11.595Z,20.43
2023-01-23T07:47:39.720Z,20.47
2023-01-23T07:50:09.203Z,20.52
2023-01-23T07:52:36.179Z,20.74
2023-01-23T07:55:03.032Z,20.95
2023-01-23T07:57:29.367Z,21.08
2023-01-23T07:59:55.692Z,21.16
2023-01-23T08:02:22.033Z,21.25
2023-01-23T08:04:48.364Z,21.33
2023-01-23T08:07:14.932Z,21.45
2023-01-23T08:09:41.253Z,21.48
2023-01-23T08:12:07.630Z,21.57
2023-01-23T08:14:34.204Z,21.59
2023-01-23T08:17:01.559Z,21.60
2023-01-23T08:19:27.987Z,21.61
2023-01-23T08:21:54.330Z,21.60
2023-01-23T08:24:21.125Z,21.62
2023-01-23T08:26:47.581Z,21.60
2023-01-23T08:29:13.923Z,21.56
2023-01-23T08:31:40.505Z,21.52
2023-01-23T08:34:07.071Z,21.53
2023-01-23T08:36:33.484Z,21.52
2023-01-23T08:39:00.104Z,21.51
2023-01-23T08:41:26.524Z,21.55
2023-01-23T08:43:52.852Z,21.66
2023-01-23T08:46:19.217Z,21.81
2023-01-23T08:48:45.537Z,21.75
2023-01-23T08:51:12.743Z,21.84
2023-01-23T08:53:39.171Z,21.81
2023-01-23T08:56:10.598Z,21.67
2023-01-23T08:58:36.922Z,21.68
2023-01-23T09:01:03.288Z,21.76
2023-01-23T09:03:29.660Z,21.80
2023-01-23T09:05:55.994Z,21.68
2023-01-23T09:08:22.320Z,21.68
2023-01-23T09:10:48.637Z,21.65
2023-01-23T09:13:15.283Z,21.71
2023-01-23T09:15:41.931Z,21.67
2023-01-23T09:18:08.267Z,21.63
2023-01-23T09:20:34.643Z,21.62
2023-01-23T09:23:00.981Z,21.57
2023-01-23T09:25:27.366Z,21.56
2023-01-23T09:27:53.679Z,21.58
2023-01-23T09:30:20.311Z,21.61
2023-01-23T09:32:46.829Z,21.65
2023-01-23T09:35:13.399Z,21.64
2023-01-23T09:37:58.838Z,21.61
2023-01-23T09:40:25.880Z,21.58
2023-01-23T09:42:52.199Z,21.56
2023-01-23T09:45:21.783Z,21.55
2023-01-23T09:47:48.017Z,21.52
2023-01-23T09:50:15.641Z,21.54
2023-01-23T09:52:42.965Z,21.61
2023-01-23T09:55:15.262Z,21.68
2023-01-23T09:57:45.661Z,21.74
2023-01-23T10:00:24.628Z,21.79
2023-01-23T10:02:53.331Z,21.79
2023-01-23T10:05:20.829Z,21.78
2023-01-23T10:07:47.319Z,21.77
2023-01-23T10:10:13.648Z,21.82
2023-01-23T10:12:44.455Z,21.86
2023-01-23T10:15:14.432Z,21.87
2023-01-23T10:17:41.847Z,21.56
2023-01-23T10:20:17.529Z,21.70
2023-01-23T10:22:44.455Z,21.77
2023-01-23T10:25:10.857Z,21.84
2023-01-23T10:27:42.237Z,21.87
2023-01-23T10:30:11.763Z,21.84
2023-01-23T10:32:46.717Z,21.87
2023-01-23T10:35:15.491Z,22.00
2023-01-23T10:37:52.586Z,22.11
2023-01-23T10:43:47.626Z,22.14
2023-01-23T10:46:14.816Z,22.12
2023-01-23T10:48:50.729Z,22.10
2023-01-23T10:54:45.791Z,22.12
2023-01-23T10:57:14.785Z,22.19
2023-01-23T10:59:42.476Z,22.28
2023-01-23T11:02:15.060Z,22.34
2023-01-23T11:04:45.417Z,22.41
2023-01-23T11:07:16.531Z,22.47
2023-01-23T11:09:49.897Z,22.48
2023-01-23T11:12:20.658Z,22.49
2023-01-23T11:14:46.962Z,22.48
2023-01-23T11:17:14.531Z,22.45
2023-01-23T11:19:41.063Z,22.44
2023-01-23T11:22:20.167Z,22.45
2023-01-23T11:24:46.460Z,22.50
2023-01-23T11:27:15.765Z,22.53
2023-01-23T11:29:53.550Z,22.56
2023-01-23T11:32:19.940Z,22.62
2023-01-23T11:34:48.176Z,22.59
2023-01-23T11:37:17.360Z,22.55
2023-01-23T11:39:52.841Z,22.55
2023-01-23T11:42:19.608Z,22.54
2023-01-23T11:44:46.878Z,22.53
2023-01-23T11:47:32.186Z,22.52
2023-01-23T11:50:17.322Z,22.52
2023-01-23T11:52:47.328Z,22.36
2023-01-23T11:55:25.888Z,22.33
2023-01-23T11:58:06.297Z,22.26
2023-01-23T12:00:35.498Z,22.28
2023-01-23T12:03:01.873Z,22.31
2023-01-23T12:05:29.660Z,22.26
2023-01-23T12:08:34.513Z,22.23
2023-01-23T12:11:09.260Z,22.27
2023-01-23T12:13:54.066Z,22.27
2023-01-23T12:16:22.364Z,22.23
2023-01-23T12:19:07.321Z,22.22
2023-01-23T12:21:33.569Z,22.17
2023-01-23T12:23:59.764Z,22.14
2023-01-23T12:26:26.819Z,22.12
2023-01-23T12:28:56.256Z,22.11
2023-01-23T12:31:40.978Z,22.12
2023-01-23T12:34:16.618Z,22.11
2023-01-23T12:36:59.404Z,22.17
2023-01-23T12:39:29.707Z,22.16
2023-01-23T12:42:03.669Z,22.12
2023-01-23T12:44:31.759Z,22.12
2023-01-23T12:47:02.975Z,22.08
2023-01-23T12:49:29.605Z,22.07
2023-01-23T12:52:06.659Z,22.04
2023-01-23T12:54:39.451Z,22.00
2023-01-23T12:57:06.191Z,21.98
2023-01-23T12:59:32.715Z,21.93
2023-01-23T13:02:10.224Z,21.92
2023-01-23T13:04:59.906Z,21.86
2023-01-23T13:07:26.140Z,21.77
2023-01-23T13:10:04.936Z,21.67
2023-01-23T13:12:31.247Z,21.90
2023-01-23T13:15:17.362Z,22.07
2023-01-23T13:17:51.614Z,22.25
2023-01-23T13:20:36.860Z,22.48
2023-01-23T13:23:18.230Z,22.55
2023-01-23T13:25:44.515Z,22.74
2023-01-23T13:28:27.720Z,22.81
2023-01-23T13:30:59.715Z,22.90
2023-01-23T13:33:28.707Z,22.95
2023-01-23T13:35:56.050Z,22.99
2023-01-23T13:38:22.442Z,23.19
2023-01-23T13:41:04.380Z,23.23
2023-01-23T13:43:49.229Z,23.48
2023-01-23T13:46:35.713Z,23.80
2023-01-23T14:21:41.665Z,24.12
2023-01-23T14:24:25.177Z,24.15
2023-01-23T14:26:52.631Z,24.14
2023-01-23T14:29:22.039Z,24.17
2023-01-23T14:31:48.508Z,24.17
2023-01-23T14:34:17.904Z,24.20
2023-01-23T14:36:56.996Z,24.19
2023-01-23T14:39:25.362Z,24.18
2023-01-23T14:41:52.965Z,24.16
2023-01-23T14:44:23.951Z,24.11
2023-01-23T14:46:50.960Z,24.16
2023-01-23T14:49:17.281Z,24.12
2023-01-23T14:51:57.531Z,23.75
2023-01-23T14:54:25.184Z,23.60
2023-01-23T14:56:52.972Z,23.54
2023-01-23T14:59:26.942Z,23.51
2023-01-23T15:01:56.855Z,23.45
2023-01-23T15:04:23.614Z,23.44
2023-01-23T15:06:55.861Z,23.42
2023-01-23T15:09:31.870Z,23.44
2023-01-23T15:12:04.039Z,23.40
2023-01-23T15:14:34.621Z,23.32
2023-01-23T15:17:04.731Z,23.38
2023-01-23T15:19:31.575Z,23.52
2023-01-23T15:22:07.606Z,23.37
2023-01-23T15:24:33.951Z,23.25
2023-01-23T15:27:03.428Z,23.20
2023-01-23T15:29:29.769Z,23.21
2023-01-23T15:31:56.880Z,23.21
2023-01-23T15:34:27.374Z,23.19
2023-01-23T15:36:53.709Z,23.17
2023-01-23T15:39:27.929Z,23.13
2023-01-23T15:41:58.682Z,23.11
2023-01-23T15:44:27.887Z,23.14
2023-01-23T15:46:54.427Z,23.16
2023-01-23T15:49:25.748Z,23.15
2023-01-23T15:51:54.412Z,23.12
2023-01-23T15:54:25.266Z,23.10
2023-01-23T15:57:05.358Z,23.07
2023-01-23T15:59:32.917Z,23.05
2023-01-23T16:01:59.233Z,23.02
2023-01-23T16:04:25.572Z,23.00
2023-01-23T16:06:51.893Z,22.97
2023-01-23T16:09:20.983Z,22.95
2023-01-23T16:11:47.321Z,22.92
2023-01-23T16:14:16.890Z,22.91
2023-01-23T16:16:43.804Z,22.89
2023-01-23T16:19:10.283Z,22.88
2023-01-23T16:21:36.626Z,22.86
2023-01-23T16:24:04.341Z,22.84
2023-01-23T16:26:31.643Z,22.84
2023-01-23T16:29:12.725Z,22.81
2023-01-23T16:31:39.738Z,22.80
2023-01-23T16:34:06.134Z,22.81
2023-01-23T16:36:32.482Z,22.80
2023-01-23T16:38:58.857Z,22.79
2023-01-23T16:41:25.191Z,22.76
2023-01-23T16:43:51.562Z,22.73
2023-01-23T16:46:17.877Z,22.68
2023-01-23T16:48:44.516Z,22.66
2023-01-23T16:51:14.707Z,22.63
2023-01-23T16:53:41.752Z,22.60
2023-01-23T16:56:08.067Z,22.58
2023-01-23T16:58:35.124Z,22.57
2023-01-23T17:01:03.633Z,22.59
2023-01-23T17:03:34.161Z,22.60
2023-01-23T17:06:00.551Z,22.57
2023-01-23T17:08:26.916Z,22.58
2023-01-23T17:10:54.320Z,22.56
2023-01-23T17:13:21.179Z,22.54
2023-01-23T17:15:47.676Z,22.53
2023-01-23T17:18:27.495Z,22.53
2023-01-23T17:20:54.802Z,22.52
2023-01-23T17:23:21.356Z,22.49
2023-01-23T17:25:59.064Z,22.48
2023-01-23T17:28:26.519Z,22.44
2023-01-23T17:30:52.916Z,22.40
2023-01-23T17:33:19.219Z,22.35
2023-01-23T17:35:45.605Z,22.29
2023-01-23T17:38:22.115Z,22.25
2023-01-23T17:40:48.527Z,22.23
2023-01-23T17:43:15.332Z,22.25
2023-01-23T17:45:41.898Z,22.33
2023-01-23T17:48:12.162Z,22.49
2023-01-23T17:50:39.168Z,22.68
2023-01-23T17:53:05.485Z,22.89
2023-01-23T17:55:32.607Z,22.97
2023-01-23T17:57:59.014Z,23.09
2023-01-23T18:00:27.070Z,23.20
2023-01-23T18:02:59.768Z,23.34
2023-01-23T18:05:26.107Z,23.45
2023-01-23T18:07:54.242Z,23.60
2023-01-23T18:10:21.786Z,23.75
2023-01-23T18:12:58.668Z,23.82
2023-01-23T18:15:37.174Z,23.85
2023-01-23T18:18:03.449Z,23.89
2023-01-23T18:20:30.555Z,23.94
2023-01-23T18:22:57.152Z,24.02
2023-01-23T18:25:24.901Z,24.04
2023-01-23T18:27:52.443Z,24.11
2023-01-23T18:30:24.962Z,24.07
2023-01-23T18:32:57.293Z,24.07
2023-01-23T18:35:44.497Z,24.06
2023-01-23T18:38:10.781Z,24.05
2023-01-23T18:40:55.871Z,24.04
2023-01-23T18:43:34.729Z,24.12
2023-01-23T18:46:01.323Z,24.14
2023-01-23T18:48:27.776Z,24.11
2023-01-23T18:50:58.734Z,24.11
2023-01-23T18:53:36.189Z,24.09
2023-01-23T18:56:10.501Z,24.07
2023-01-23T18:58:39.792Z,24.10
2023-01-23T19:01:18.147Z,24.11
2023-01-23T19:03:44.818Z,24.13
2023-01-23T19:06:16.119Z,24.15
2023-01-23T19:08:43.107Z,24.10
2023-01-23T19:11:16.745Z,24.07
2023-01-23T19:13:55.474Z,24.03
2023-01-23T19:16:31.961Z,23.97
2023-01-23T19:19:15.897Z,24.01
2023-01-23T19:21:42.444Z,23.99
2023-01-23T19:24:09.925Z,23.96
2023-01-23T19:26:37.016Z,23.93
2023-01-23T19:29:19.955Z,23.85
2023-01-23T19:32:03.041Z,23.82
2023-01-23T19:34:30.990Z,23.84
2023-01-23T19:36:57.343Z,23.84
2023-01-23T19:39:23.677Z,23.86
2023-01-23T19:41:49.973Z,23.86
2023-01-23T19:44:16.729Z,23.86
2023-01-23T19:46:43.120Z,23.86
2023-01-23T19:49:09.845Z,23.85
2023-01-23T19:51:36.196Z,23.87
2023-01-23T19:54:02.677Z,23.86
2023-01-23T19:56:29.070Z,23.84
2023-01-23T19:58:56.379Z,23.84
2023-01-23T20:01:24.372Z,23.84
2023-01-23T20:03:50.902Z,23.84
2023-01-23T20:06:17.225Z,24.14
2023-01-23T20:08:43.553Z,24.27
2023-01-23T20:11:10.987Z,24.28
2023-01-23T20:13:37.416Z,24.31
2023-01-23T20:16:07.476Z,24.33
2023-01-23T20:18:33.786Z,24.32
2023-01-23T20:21:00.114Z,24.29
2023-01-23T20:23:29.130Z,24.25
2023-01-23T20:26:01.703Z,24.25
2023-01-23T20:28:28.130Z,24.28
2023-01-23T20:30:54.480Z,24.08
2023-01-23T20:33:21.559Z,23.91
2023-01-23T20:35:50.004Z,24.09
2023-01-23T20:38:16.319Z,24.09
2023-01-23T20:40:42.632Z,24.23
2023-01-23T20:43:08.947Z,24.19
2023-01-23T20:45:35.308Z,24.16
2023-01-23T20:48:01.759Z,24.14
2023-01-23T20:50:28.124Z,24.15
2023-01-23T20:53:13.125Z,24.15
2023-01-23T20:55:39.486Z,24.16
2023-01-23T20:58:41.300Z,24.13
2023-01-23T21:01:07.654Z,24.13
2023-01-23T21:03:33.996Z,24.12
2023-01-23T21:06:00.492Z,24.11
2023-01-23T21:08:26.833Z,24.10
2023-01-23T21:10:54.159Z,23.81
2023-01-23T21:13:20.539Z,23.89
2023-01-23T21:15:56.600Z,23.96
2023-01-23T21:18:22.925Z,23.95
2023-01-23T21:20:49.246Z,23.93
2023-01-23T21:23:15.562Z,23.88
2023-01-23T21:25:41.879Z,23.93
2023-01-23T21:28:08.190Z,23.92
2023-01-23T21:30:34.591Z,24.08
2023-01-23T21:33:00.941Z,24.21
2023-01-23T21:35:27.271Z,24.21
2023-01-23T21:37:53.577Z,24.00
2023-01-23T21:40:19.952Z,23.94
2023-01-23T21:42:46.269Z,23.91
2023-01-23T21:45:12.594Z,23.53
2023-01-23T21:47:38.954Z,23.36
2023-01-23T21:50:05.558Z,23.17
2023-01-23T21:52:31.870Z,23.28
2023-01-23T21:54:58.210Z,23.61
2023-01-23T21:57:24.545Z,23.64
2023-01-23T22:00:09.469Z,23.74
2023-01-23T22:02:35.858Z,23.75
2023-01-23T22:05:02.277Z,23.83
2023-01-23T22:07:28.637Z,23.93
2023-01-23T22:09:55.728Z,24.03
2023-01-23T22:12:22.049Z,24.14
2023-01-23T22:14:48.427Z,24.21
2023-01-23T22:17:14.746Z,24.42
2023-01-23T22:19:41.079Z,24.55
2023-01-23T22:22:07.485Z,24.20
2023-01-23T22:24:33.806Z,24.08
2023-01-23T22:27:00.181Z,24.14
2023-01-23T22:29:26.490Z,24.16
2023-01-23T22:31:52.927Z,24.22
2023-01-23T22:34:19.320Z,24.25
2023-01-23T22:36:45.625Z,24.28
2023-01-23T22:39:11.978Z,24.29
2023-01-23T22:41:38.304Z,24.31
2023-01-23T22:44:04.740Z,24.35
2023-01-23T22:46:32.241Z,24.30
2023-01-23T22:48:58.658Z,24.34
2023-01-23T22:51:25.454Z,24.57
2023-01-23T22:53:52.133Z,24.94
2023-01-23T22:56:18.494Z,25.09
2023-01-23T22:58:45.259Z,25.12
2023-01-23T23:01:11.769Z,25.14
2023-01-23T23:03:38.163Z,25.18
2023-01-23T23:06:05.222Z,25.19
2023-01-23T23:08:31.539Z,25.22
2023-01-23T23:11:04.029Z,25.10
2023-01-23T23:13:30.682Z,25.21
2023-01-23T23:15:57.002Z,25.25
2023-01-23T23:18:23.306Z,25.27
2023-01-23T23:20:49.623Z,25.28
2023-01-23T23:23:15.961Z,25.29
2023-01-23T23:25:42.414Z,25.32
2023-01-23T23:28:08.751Z,25.32
2023-01-23T23:30:35.083Z,25.30
2023-01-23T23:33:01.733Z,25.33
2023-01-23T23:35:28.056Z,25.32
2023-01-23T23:37:54.361Z,25.32
2023-01-23T23:40:20.695Z,25.32
2023-01-23T23:42:47.013Z,25.30
2023-01-23T23:45:13.345Z,25.27
2023-01-23T23:47:39.658Z,25.28
2023-01-23T23:50:06.216Z,25.10
2023-01-23T23:52:34.969Z,25.11
2023-01-23T23:55:02.759Z,25.16
2023-01-23T23:57:29.119Z,25.17
2023-01-23T23:59:55.494Z,25.17
